CheckWX is a tool to help pilots better visualize weather data.  It is not intended as a substitute for an official pre-flight weather briefing.

23:35:04 UTC

LEMG TAF
Málaga Airport
Málaga, Spain
TAF LEMG 181700Z 1818/1918 27009KT 9999 FEW040 TX26/1913Z TN17/1906Z PROB40 TEMPO 1818/1820 10006KT PROB40 TEMPO 1911/1915 15006KT

Oct-18@
18:00 UTC

Oct-18 @ 18:00 UTC

Oct-19@
18:00 UTC

Oct-19 @ 18:00 UTC

TAF LEMG 181700Z 1818/1918 27009KT 9999 FEW040 TX26/1913Z TN17/1906Z
Wind
  • 270° at 9 KTS
Cloud Levels
  • Few at 4,000' AGL

Oct-18@
18:00 UTC

Oct-18 @ 18:00 UTC

Oct-18@
20:00 UTC

Oct-18 @ 20:00 UTC

PROB40 TEMPO 1818/1820 10006KT

Expired

Wind
  • 100° at 6 KTS

Oct-19@
11:00 UTC

Oct-19 @ 11:00 UTC

Oct-19@
15:00 UTC

Oct-19 @ 15:00 UTC

PROB40 TEMPO 1911/1915 15006KT

Temporary - 40% Likelihood

Temporary - 40% Likelihood during this time.

Wind
  • 150° at 6 KTS